Time;durP1;ratioP1;P1;durP2;ratioP2;P2;SDS_P1;SDS_P2;PMS_P1;PMS_P2;Temp;Humidity;BMP_temperature;BMP_pressure;BME280_temperature;BME280_humidity;BME280_pressure;Samples;Min_cycle;Max_cycle;Signal;HPM_P1;HPM_P2
2021/03/18 00:00:57;;;;;;;5.60;2.60;;;;;;;;;;5099181;28;20448;-73
2021/03/18 00:03:26;;;;;;;4.30;3.00;;;;;;;;;;5099157;28;20474;-73
2021/03/18 00:05:54;;;;;;;3.13;2.43;;;;;;;;;;5098752;28;20844;-73
2021/03/18 00:08:21;;;;;;;3.40;2.57;;;;;;;;;;5099023;28;20443;-73
2021/03/18 00:10:49;;;;;;;2.97;2.67;;;;;;;;;;5099103;28;20564;-73
2021/03/18 00:13:16;;;;;;;2.80;2.60;;;;;;;;;;5098591;28;20451;-74
2021/03/18 00:15:44;;;;;;;2.73;2.43;;;;;;;;;;5098998;28;20501;-73
2021/03/18 00:18:12;;;;;;;2.73;2.50;;;;;;;;;;5098917;28;20452;-73
2021/03/18 00:20:39;;;;;;;2.80;2.60;;;;;;;;;;5098946;28;20239;-73
2021/03/18 00:23:06;;;;;;;2.90;2.70;;;;;;;;;;5098948;28;20248;-73
2021/03/18 00:25:33;;;;;;;2.37;2.17;;;;;;;;;;5098362;28;20776;-73
2021/03/18 00:28:01;;;;;;;3.30;2.70;;;;;;;;;;5098162;28;20320;-73
2021/03/18 00:30:28;;;;;;;3.20;2.90;;;;;;;;;;5098717;28;20535;-73
2021/03/18 00:32:56;;;;;;;4.20;2.80;;;;;;;;;;5098294;28;20943;-73
2021/03/18 00:35:23;;;;;;;3.10;2.57;;;;;;;;;;5114044;28;20992;-73
2021/03/18 00:37:51;;;;;;;3.47;2.70;;;;;;;;;;5118515;28;20231;-73
2021/03/18 00:40:21;;;;;;;3.23;2.77;;;;;;;;;;5118721;28;20579;-73
2021/03/18 00:42:49;;;;;;;3.07;2.57;;;;;;;;;;5118373;27;20231;-73
2021/03/18 00:45:18;;;;;;;4.40;3.37;;;;;;;;;;5118812;27;20317;-73
2021/03/18 00:47:45;;;;;;;4.20;2.87;;;;;;;;;;5099908;28;20229;-73
2021/03/18 00:50:14;;;;;;;3.27;2.97;;;;;;;;;;5098164;28;20284;-73
2021/03/18 00:52:41;;;;;;;3.07;2.77;;;;;;;;;;5098341;28;20229;-73
2021/03/18 00:55:08;;;;;;;3.73;3.00;;;;;;;;;;5098040;28;20832;-73
2021/03/18 00:57:35;;;;;;;4.13;3.17;;;;;;;;;;5097557;28;21295;-73
2021/03/18 01:00:05;;;;;;;4.67;3.17;;;;;;;;;;5098284;28;20466;-73
2021/03/18 01:02:33;;;;;;;3.63;3.10;;;;;;;;;;5104645;28;20521;-73
2021/03/18 01:05:00;;;;;;;3.73;2.83;;;;;;;;;;5118328;28;20459;-73
2021/03/18 01:07:27;;;;;;;4.40;3.00;;;;;;;;;;5118709;28;21077;-73
2021/03/18 01:09:54;;;;;;;3.17;2.70;;;;;;;;;;5118487;28;20514;-73
2021/03/18 01:12:21;;;;;;;4.93;3.60;;;;;;;;;;5118164;28;20447;-73
2021/03/18 01:14:48;;;;;;;4.37;3.50;;;;;;;;;;5118176;28;20303;-73
2021/03/18 01:17:15;;;;;;;3.87;3.17;;;;;;;;;;5118241;28;20307;-73
2021/03/18 01:19:44;;;;;;;4.53;3.20;;;;;;;;;;5118131;28;20215;-73
2021/03/18 01:22:11;;;;;;;5.13;3.47;;;;;;;;;;5118262;28;20694;-73
2021/03/18 01:24:38;;;;;;;9.37;3.67;;;;;;;;;;5118242;28;20259;-73
2021/03/18 01:27:05;;;;;;;6.37;4.10;;;;;;;;;;5117978;28;20259;-73
2021/03/18 01:29:32;;;;;;;4.90;3.60;;;;;;;;;;5117939;28;20319;-73
2021/03/18 01:31:59;;;;;;;4.50;3.83;;;;;;;;;;5118163;28;20570;-73
2021/03/18 01:48:20;;;;;;;4.47;3.63;;;;;;;;;;5098569;28;20848;-73
2021/03/18 01:50:47;;;;;;;5.13;4.13;;;;;;;;;;5101849;28;20472;-73
2021/03/18 01:53:15;;;;;;;6.63;4.27;;;;;;;;;;5101776;28;20535;-73
2021/03/18 01:55:43;;;;;;;4.03;3.63;;;;;;;;;;5101358;28;21041;-73
2021/03/18 01:58:11;;;;;;;4.67;3.90;;;;;;;;;;5101244;28;20535;-74
2021/03/18 02:00:39;;;;;;;4.97;3.93;;;;;;;;;;5101527;28;20470;-74
2021/03/18 02:03:07;;;;;;;3.87;3.47;;;;;;;;;;5101506;28;20499;-74
2021/03/18 02:05:35;;;;;;;4.20;3.80;;;;;;;;;;5101162;28;20512;-73
2021/03/18 02:08:03;;;;;;;4.43;4.03;;;;;;;;;;5101626;28;20501;-73
2021/03/18 02:10:31;;;;;;;4.17;3.60;;;;;;;;;;5100997;28;20482;-73
2021/03/18 02:12:59;;;;;;;4.07;3.53;;;;;;;;;;5101172;28;20477;-73
2021/03/18 02:15:27;;;;;;;4.13;3.73;;;;;;;;;;5100875;28;20468;-73
2021/03/18 02:17:56;;;;;;;4.77;4.07;;;;;;;;;;5101312;28;20530;-73
2021/03/18 02:20:50;;;;;;;5.80;4.13;;;;;;;;;;5101170;28;20439;-73
2021/03/18 02:23:36;;;;;;;4.00;3.60;;;;;;;;;;5110562;28;20440;-72
2021/03/18 02:26:09;;;;;;;5.43;3.97;;;;;;;;;;5110592;28;20533;-73
2021/03/18 02:28:47;;;;;;;6.10;4.37;;;;;;;;;;5110383;28;20462;-72
2021/03/18 02:31:21;;;;;;;5.27;4.00;;;;;;;;;;5111818;28;20769;-72
2021/03/18 02:34:02;;;;;;;5.37;4.37;;;;;;;;;;5113956;28;20514;-72
2021/03/18 02:36:44;;;;;;;6.30;4.40;;;;;;;;;;5113711;28;20443;-73
2021/03/18 02:39:14;;;;;;;4.97;4.33;;;;;;;;;;5111530;28;20449;-73
2021/03/18 02:41:44;;;;;;;5.17;4.53;;;;;;;;;;5111098;28;20518;-73
2021/03/18 02:44:13;;;;;;;8.13;4.33;;;;;;;;;;5111256;28;20468;-73
2021/03/18 02:46:41;;;;;;;5.50;4.03;;;;;;;;;;5113401;28;20906;-73
2021/03/18 02:49:09;;;;;;;6.93;5.40;;;;;;;;;;5111013;27;20537;-73
2021/03/18 02:51:37;;;;;;;5.13;4.43;;;;;;;;;;5111330;28;20482;-73
2021/03/18 02:54:07;;;;;;;5.70;4.87;;;;;;;;;;5110798;28;20526;-73
2021/03/18 02:56:37;;;;;;;5.37;4.30;;;;;;;;;;5109944;28;20513;-73
2021/03/18 02:59:05;;;;;;;4.20;3.53;;;;;;;;;;5112406;28;20985;-73
2021/03/18 03:01:33;;;;;;;5.73;4.20;;;;;;;;;;5110384;27;21005;-73
2021/03/18 03:04:01;;;;;;;6.57;4.90;;;;;;;;;;5111767;28;20930;-73
2021/03/18 03:06:28;;;;;;;5.00;4.10;;;;;;;;;;5110560;28;20521;-74
2021/03/18 03:08:55;;;;;;;5.00;4.50;;;;;;;;;;5113889;28;20474;-73
2021/03/18 03:11:25;;;;;;;7.07;4.63;;;;;;;;;;5099525;28;20447;-73
2021/03/18 03:13:52;;;;;;;6.93;4.43;;;;;;;;;;5099705;28;20504;-73
2021/03/18 03:16:20;;;;;;;4.80;4.37;;;;;;;;;;5098428;28;20540;-73
2021/03/18 03:18:48;;;;;;;8.97;4.93;;;;;;;;;;5105015;28;20446;-73
2021/03/18 03:21:16;;;;;;;6.70;4.87;;;;;;;;;;5118429;28;20477;-73
2021/03/18 03:23:44;;;;;;;7.40;4.90;;;;;;;;;;5118312;28;20478;-73
2021/03/18 03:26:12;;;;;;;6.33;5.10;;;;;;;;;;5117901;28;21078;-73
2021/03/18 03:28:40;;;;;;;6.57;4.50;;;;;;;;;;5118019;28;20509;-73
2021/03/18 03:31:07;;;;;;;7.30;5.10;;;;;;;;;;5118727;28;20538;-73
2021/03/18 03:33:34;;;;;;;7.77;5.50;;;;;;;;;;5119903;28;20471;-73
2021/03/18 03:36:02;;;;;;;9.57;5.23;;;;;;;;;;5119699;28;20463;-73
2021/03/18 03:38:29;;;;;;;7.30;4.67;;;;;;;;;;5120019;28;20430;-73
2021/03/18 03:40:56;;;;;;;5.90;4.60;;;;;;;;;;5119999;28;20538;-73
2021/03/18 03:43:23;;;;;;;6.17;5.17;;;;;;;;;;5119370;28;20516;-72
2021/03/18 03:45:54;;;;;;;7.43;5.00;;;;;;;;;;5117565;28;20497;-72
2021/03/18 03:48:21;;;;;;;6.00;5.10;;;;;;;;;;5099560;28;20467;-72
2021/03/18 03:50:49;;;;;;;6.00;4.17;;;;;;;;;;5099187;28;20947;-73
2021/03/18 03:53:19;;;;;;;5.93;4.30;;;;;;;;;;5099526;28;20479;-73
2021/03/18 03:55:49;;;;;;;6.00;4.77;;;;;;;;;;5099180;28;21053;-73
2021/03/18 03:58:25;;;;;;;6.90;4.73;;;;;;;;;;5098716;28;20996;-73
2021/03/18 04:00:55;;;;;;;5.73;4.83;;;;;;;;;;5099065;28;20869;-73
2021/03/18 04:03:23;;;;;;;7.20;5.07;;;;;;;;;;5099260;28;20443;-73
2021/03/18 04:05:52;;;;;;;8.70;5.10;;;;;;;;;;5099080;28;20259;-74
2021/03/18 04:08:22;;;;;;;8.63;4.80;;;;;;;;;;5099086;28;20261;-74
2021/03/18 04:10:49;;;;;;;7.03;5.00;;;;;;;;;;5098415;28;20456;-73
2021/03/18 04:13:16;;;;;;;7.30;4.93;;;;;;;;;;5098585;28;20477;-74
2021/03/18 04:15:44;;;;;;;7.40;5.60;;;;;;;;;;5098743;28;20494;-73
2021/03/18 04:18:12;;;;;;;8.80;5.80;;;;;;;;;;5098648;28;20475;-74
2021/03/18 04:20:40;;;;;;;7.00;5.13;;;;;;;;;;5098631;28;20815;-74
2021/03/18 04:23:08;;;;;;;10.20;5.50;;;;;;;;;;5098683;28;20532;-74
2021/03/18 04:25:35;;;;;;;7.27;5.03;;;;;;;;;;5098504;28;21062;-74
2021/03/18 04:28:02;;;;;;;7.30;5.00;;;;;;;;;;5098314;28;20519;-73
2021/03/18 04:30:31;;;;;;;7.57;5.57;;;;;;;;;;5098792;28;21215;-74
2021/03/18 04:32:59;;;;;;;7.87;5.20;;;;;;;;;;5098611;28;20443;-74
2021/03/18 04:35:27;;;;;;;9.10;5.23;;;;;;;;;;5114582;28;20499;-74
2021/03/18 04:37:55;;;;;;;7.93;5.13;;;;;;;;;;5118900;28;20492;-74
2021/03/18 04:40:22;;;;;;;8.93;4.93;;;;;;;;;;5118997;28;20478;-74
2021/03/18 04:42:49;;;;;;;7.57;5.07;;;;;;;;;;5118507;28;20475;-74
2021/03/18 04:45:18;;;;;;;6.70;4.77;;;;;;;;;;5118743;28;20498;-73
2021/03/18 04:47:47;;;;;;;8.57;5.03;;;;;;;;;;5099810;28;20483;-74
2021/03/18 04:50:14;;;;;;;8.00;5.80;;;;;;;;;;5098173;28;20934;-74
2021/03/18 04:52:43;;;;;;;9.00;5.50;;;;;;;;;;5098119;28;20452;-73
2021/03/18 04:55:11;;;;;;;6.33;5.17;;;;;;;;;;5098158;28;21006;-74
2021/03/18 04:57:41;;;;;;;9.10;5.17;;;;;;;;;;5097657;28;20505;-73
2021/03/18 05:00:08;;;;;;;8.73;5.60;;;;;;;;;;5098061;28;20478;-73
2021/03/18 05:02:38;;;;;;;8.07;5.50;;;;;;;;;;5098302;28;20797;-74
2021/03/18 05:05:13;;;;;;;6.53;5.20;;;;;;;;;;5097922;28;20824;-73
2021/03/18 05:07:40;;;;;;;7.53;5.23;;;;;;;;;;5097878;28;20933;-74
2021/03/18 05:10:10;;;;;;;9.27;5.30;;;;;;;;;;5098043;28;20482;-73
2021/03/18 05:12:37;;;;;;;9.30;5.47;;;;;;;;;;5097555;28;20886;-74
2021/03/18 05:15:05;;;;;;;9.90;5.93;;;;;;;;;;5097705;28;20494;-74
2021/03/18 05:17:33;;;;;;;8.37;5.40;;;;;;;;;;5098467;28;20469;-73
2021/03/18 05:20:01;;;;;;;8.73;6.00;;;;;;;;;;5098010;28;20497;-73
2021/03/18 05:22:28;;;;;;;9.03;5.80;;;;;;;;;;5098076;28;20504;-74
2021/03/18 05:24:59;;;;;;;6.43;5.77;;;;;;;;;;5101787;28;20467;-74
2021/03/18 05:27:27;;;;;;;7.73;5.90;;;;;;;;;;5101664;28;20549;-74
2021/03/18 05:29:54;;;;;;;7.77;5.80;;;;;;;;;;5101741;28;21005;-74
2021/03/18 05:32:24;;;;;;;7.10;5.30;;;;;;;;;;5102216;28;20444;-74
2021/03/18 05:34:51;;;;;;;8.67;6.00;;;;;;;;;;5112351;28;20537;-74
2021/03/18 05:37:18;;;;;;;10.07;6.07;;;;;;;;;;5122521;28;20526;-74
2021/03/18 05:39:45;;;;;;;7.67;5.97;;;;;;;;;;5122212;28;20503;-74
2021/03/18 05:42:12;;;;;;;7.20;5.70;;;;;;;;;;5121942;28;20439;-74
2021/03/18 05:44:40;;;;;;;10.10;6.27;;;;;;;;;;5121984;28;20879;-74
2021/03/18 05:47:08;;;;;;;7.87;5.70;;;;;;;;;;5108381;28;20881;-74
2021/03/18 05:49:37;;;;;;;7.33;5.97;;;;;;;;;;5109197;28;20464;-74
2021/03/18 05:52:06;;;;;;;11.67;6.90;;;;;;;;;;5121805;28;20442;-74
2021/03/18 05:54:33;;;;;;;10.57;5.90;;;;;;;;;;5121904;28;20533;-74
2021/03/18 05:57:01;;;;;;;8.00;6.33;;;;;;;;;;5121205;28;20877;-74
2021/03/18 05:59:28;;;;;;;13.33;6.73;;;;;;;;;;5114139;27;20466;-73
2021/03/18 06:01:56;;;;;;;14.97;10.53;;;;;;;;;;5113831;28;20456;-74
2021/03/18 06:04:23;;;;;;;9.67;6.57;;;;;;;;;;5113417;28;20447;-74
2021/03/18 06:06:51;;;;;;;7.13;5.60;;;;;;;;;;5117017;28;20582;-75
2021/03/18 06:09:18;;;;;;;9.23;5.87;;;;;;;;;;5100893;28;20450;-74
2021/03/18 06:11:45;;;;;;;7.00;5.83;;;;;;;;;;5099382;28;20440;-74
2021/03/18 06:14:12;;;;;;;8.90;6.00;;;;;;;;;;5099242;28;20466;-74
2021/03/18 06:16:40;;;;;;;11.03;6.43;;;;;;;;;;5100725;28;20478;-74
2021/03/18 06:19:08;;;;;;;8.87;6.17;;;;;;;;;;5100788;28;20526;-74
2021/03/18 06:21:42;;;;;;;10.47;6.57;;;;;;;;;;5100901;28;20522;-73
2021/03/18 06:24:10;;;;;;;10.77;6.20;;;;;;;;;;5100660;28;20505;-73
2021/03/18 06:26:37;;;;;;;9.43;6.33;;;;;;;;;;5100129;28;20471;-73
2021/03/18 06:29:05;;;;;;;10.23;5.43;;;;;;;;;;5099270;28;20527;-73
2021/03/18 06:31:32;;;;;;;8.73;5.67;;;;;;;;;;5098560;28;21015;-73
2021/03/18 06:34:00;;;;;;;11.83;6.23;;;;;;;;;;5102318;28;20443;-73
2021/03/18 06:36:29;;;;;;;10.50;6.40;;;;;;;;;;5119984;28;20466;-73
2021/03/18 06:38:57;;;;;;;12.43;6.57;;;;;;;;;;5120738;28;20492;-73
2021/03/18 06:41:29;;;;;;;9.03;5.77;;;;;;;;;;5120177;28;20474;-73
2021/03/18 06:43:56;;;;;;;6.90;5.70;;;;;;;;;;5120567;28;20449;-73
2021/03/18 06:46:23;;;;;;;7.13;5.87;;;;;;;;;;5113884;28;20489;-73
2021/03/18 06:48:51;;;;;;;8.73;5.87;;;;;;;;;;5100633;28;20522;-73
2021/03/18 06:51:23;;;;;;;8.73;5.97;;;;;;;;;;5100122;28;20482;-73
2021/03/18 06:53:51;;;;;;;11.43;5.53;;;;;;;;;;5118851;28;20454;-69
2021/03/18 06:56:19;;;;;;;7.23;5.53;;;;;;;;;;5099755;28;20460;-70
2021/03/18 06:58:46;;;;;;;7.53;5.67;;;;;;;;;;5100067;28;20446;-70
2021/03/18 07:01:13;;;;;;;6.87;5.43;;;;;;;;;;5108884;28;20870;-70
2021/03/18 07:03:41;;;;;;;9.47;5.50;;;;;;;;;;5118529;28;20477;-71
2021/03/18 07:06:09;;;;;;;7.13;5.40;;;;;;;;;;5110790;28;20275;-71
2021/03/18 07:08:38;;;;;;;9.27;6.07;;;;;;;;;;5099792;28;21060;-71
2021/03/18 07:11:19;;;;;;;9.97;5.87;;;;;;;;;;5099742;28;20474;-72
2021/03/18 07:13:46;;;;;;;7.20;5.73;;;;;;;;;;5100120;28;20990;-71
2021/03/18 07:16:13;;;;;;;9.53;5.27;;;;;;;;;;5100032;28;20499;-72
2021/03/18 07:18:41;;;;;;;8.63;5.13;;;;;;;;;;5099831;28;20447;-71
2021/03/18 07:21:11;;;;;;;7.83;5.37;;;;;;;;;;5099714;28;20475;-72
2021/03/18 07:23:39;;;;;;;6.87;5.63;;;;;;;;;;5099883;28;20519;-71
2021/03/18 07:26:14;;;;;;;8.27;5.87;;;;;;;;;;5099410;28;20506;-72
2021/03/18 07:28:42;;;;;;;8.93;5.47;;;;;;;;;;5099391;28;20529;-74
2021/03/18 07:31:11;;;;;;;11.33;6.33;;;;;;;;;;5099801;28;20531;-75
2021/03/18 07:33:38;;;;;;;8.10;5.70;;;;;;;;;;5100562;28;20493;-76
2021/03/18 07:36:06;;;;;;;7.00;5.33;;;;;;;;;;5119811;28;20508;-78
2021/03/18 07:38:35;;;;;;;9.17;5.73;;;;;;;;;;5119820;28;20556;-79
2021/03/18 07:41:02;;;;;;;11.63;5.93;;;;;;;;;;5119530;27;20892;-77
2021/03/18 07:43:29;;;;;;;9.27;5.27;;;;;;;;;;5119908;28;20496;-77
2021/03/18 07:45:58;;;;;;;10.13;5.43;;;;;;;;;;5116691;28;20582;-77
2021/03/18 07:48:25;;;;;;;7.80;4.97;;;;;;;;;;5110794;28;20815;-78
2021/03/18 07:50:55;;;;;;;8.67;5.63;;;;;;;;;;5110904;28;20435;-77
2021/03/18 07:53:22;;;;;;;9.43;5.73;;;;;;;;;;5108079;27;20504;-76
2021/03/18 07:55:50;;;;;;;8.17;5.03;;;;;;;;;;5099223;28;20502;-77
2021/03/18 07:58:35;;;;;;;9.93;5.30;;;;;;;;;;5098686;28;20479;-77
2021/03/18 08:01:03;;;;;;;7.73;4.93;;;;;;;;;;5106926;28;20503;-77
2021/03/18 08:03:31;;;;;;;7.60;5.10;;;;;;;;;;5119645;28;20442;-78
2021/03/18 08:05:59;;;;;;;7.50;4.53;;;;;;;;;;5119541;28;20291;-77
2021/03/18 08:08:36;;;;;;;9.67;4.67;;;;;;;;;;5119096;28;20715;-77
2021/03/18 08:11:04;;;;;;;6.17;4.43;;;;;;;;;;5119299;27;20209;-74
2021/03/18 08:13:32;;;;;;;4.97;4.33;;;;;;;;;;5116031;28;20240;-77
2021/03/18 08:15:59;;;;;;;7.27;4.57;;;;;;;;;;5098683;28;20271;-78
2021/03/18 08:18:44;;;;;;;6.63;4.70;;;;;;;;;;5098655;28;20201;-75
2021/03/18 08:21:13;;;;;;;7.27;4.57;;;;;;;;;;5102112;28;20205;-75
2021/03/18 08:23:47;;;;;;;8.53;4.57;;;;;;;;;;5118605;28;20201;-77
2021/03/18 08:26:20;;;;;;;8.17;4.40;;;;;;;;;;5118171;28;20312;-76
2021/03/18 08:28:49;;;;;;;10.67;4.63;;;;;;;;;;5118812;28;20245;-77
2021/03/18 08:31:17;;;;;;;8.60;4.63;;;;;;;;;;5118988;28;20236;-74
2021/03/18 08:33:47;;;;;;;6.70;3.83;;;;;;;;;;5118985;28;20212;-75
2021/03/18 08:36:23;;;;;;;6.53;4.07;;;;;;;;;;5118536;28;20638;-76
2021/03/18 08:38:50;;;;;;;6.13;3.80;;;;;;;;;;5118931;28;20283;-76
2021/03/18 08:41:27;;;;;;;6.67;4.10;;;;;;;;;;5118242;28;20672;-74
2021/03/18 08:44:18;;;;;;;4.50;3.83;;;;;;;;;;5119101;28;20215;-75
2021/03/18 08:46:48;;;;;;;6.70;4.03;;;;;;;;;;5108389;28;20239;-75
2021/03/18 08:49:20;;;;;;;5.23;3.63;;;;;;;;;;5096587;28;20206;-75
2021/03/18 08:51:48;;;;;;;4.57;3.97;;;;;;;;;;5096322;28;20338;-74
2021/03/18 08:54:33;;;;;;;4.87;4.03;;;;;;;;;;5096135;28;20230;-74
2021/03/18 08:57:01;;;;;;;5.23;3.40;;;;;;;;;;5096303;28;20240;-74
2021/03/18 08:59:29;;;;;;;7.90;4.67;;;;;;;;;;5097020;28;20201;-74
2021/03/18 09:02:02;;;;;;;7.43;4.10;;;;;;;;;;5097596;28;20297;-74
2021/03/18 09:04:35;;;;;;;7.17;4.03;;;;;;;;;;5098109;28;20229;-76
2021/03/18 09:07:04;;;;;;;5.73;3.97;;;;;;;;;;5098070;28;20288;-74
2021/03/18 09:09:31;;;;;;;5.13;3.87;;;;;;;;;;5098094;28;20209;-75
2021/03/18 09:11:59;;;;;;;8.87;3.73;;;;;;;;;;5097289;28;20452;-74
2021/03/18 09:14:26;;;;;;;6.30;3.87;;;;;;;;;;5098072;28;20459;-74
2021/03/18 09:17:02;;;;;;;8.63;3.73;;;;;;;;;;5097769;28;20213;-74
2021/03/18 09:19:34;;;;;;;9.50;4.53;;;;;;;;;;5098241;28;20325;-74
2021/03/18 09:22:01;;;;;;;6.27;4.20;;;;;;;;;;5097982;28;20206;-74
2021/03/18 09:24:34;;;;;;;4.90;3.70;;;;;;;;;;5097865;28;20249;-75
2021/03/18 09:27:05;;;;;;;5.30;3.80;;;;;;;;;;5105004;28;20205;-75
2021/03/18 09:29:32;;;;;;;4.10;3.63;;;;;;;;;;5117934;28;20696;-75
2021/03/18 09:32:03;;;;;;;7.43;4.43;;;;;;;;;;5118263;28;20268;-74
2021/03/18 09:34:31;;;;;;;4.87;4.40;;;;;;;;;;5117804;28;20281;-74
2021/03/18 09:36:58;;;;;;;3.87;3.47;;;;;;;;;;5118037;28;20671;-74
2021/03/18 09:39:25;;;;;;;9.13;4.33;;;;;;;;;;5117993;28;20274;-72
2021/03/18 09:41:55;;;;;;;4.67;4.10;;;;;;;;;;5117834;28;20205;-74
2021/03/18 09:44:25;;;;;;;5.47;4.30;;;;;;;;;;5117756;28;20278;-74
2021/03/18 09:46:54;;;;;;;5.63;4.20;;;;;;;;;;5106300;28;20706;-76
2021/03/18 09:49:27;;;;;;;7.20;4.57;;;;;;;;;;5097662;28;20206;-76
2021/03/18 09:51:54;;;;;;;5.50;3.97;;;;;;;;;;5097779;28;20237;-75
2021/03/18 09:54:23;;;;;;;6.23;4.33;;;;;;;;;;5097296;28;20713;-74
2021/03/18 09:56:51;;;;;;;5.87;3.83;;;;;;;;;;5097324;28;20210;-75
2021/03/18 09:59:21;;;;;;;6.40;4.00;;;;;;;;;;5104364;28;20213;-75
2021/03/18 10:01:49;;;;;;;7.23;4.53;;;;;;;;;;5117940;28;20239;-76
2021/03/18 10:04:19;;;;;;;5.23;4.40;;;;;;;;;;5117782;28;20248;-77
2021/03/18 10:06:47;;;;;;;6.90;4.00;;;;;;;;;;5117800;28;20743;-77
2021/03/18 10:09:19;;;;;;;5.57;4.60;;;;;;;;;;5118461;28;20297;-78
2021/03/18 10:11:47;;;;;;;8.20;4.97;;;;;;;;;;5121635;28;20287;-77
2021/03/18 10:14:15;;;;;;;5.00;4.43;;;;;;;;;;5121674;28;20291;-74
2021/03/18 10:17:03;;;;;;;5.20;4.23;;;;;;;;;;5121596;28;20205;-75
2021/03/18 10:19:32;;;;;;;7.07;4.70;;;;;;;;;;5121495;28;20201;-74
2021/03/18 10:22:00;;;;;;;7.93;4.50;;;;;;;;;;5121184;28;20652;-74
2021/03/18 10:24:27;;;;;;;6.97;4.60;;;;;;;;;;5121366;28;20275;-75
2021/03/18 10:26:54;;;;;;;7.27;4.43;;;;;;;;;;5121174;28;20205;-79
2021/03/18 10:29:21;;;;;;;5.67;3.93;;;;;;;;;;5121052;28;20268;-76
2021/03/18 10:31:48;;;;;;;6.20;4.10;;;;;;;;;;5121055;28;20228;-78
2021/03/18 10:34:26;;;;;;;6.77;4.07;;;;;;;;;;5120857;28;20607;-78
2021/03/18 10:36:53;;;;;;;8.27;4.50;;;;;;;;;;5121361;28;20209;-76
2021/03/18 10:39:25;;;;;;;4.20;3.50;;;;;;;;;;5121277;28;20296;-77
2021/03/18 10:41:53;;;;;;;4.63;3.20;;;;;;;;;;5115213;28;20235;-75
2021/03/18 10:44:34;;;;;;;6.03;3.87;;;;;;;;;;5113443;28;20276;-73
2021/03/18 10:47:14;;;;;;;4.77;3.40;;;;;;;;;;5108006;28;20258;-75
2021/03/18 10:49:53;;;;;;;5.63;3.30;;;;;;;;;;5105974;28;20715;-74
2021/03/18 10:52:20;;;;;;;4.20;3.03;;;;;;;;;;5111322;28;20200;-75
2021/03/18 10:54:48;;;;;;;3.93;3.37;;;;;;;;;;5109042;28;20580;-74
2021/03/18 10:57:15;;;;;;;5.43;3.33;;;;;;;;;;5107463;28;20204;-75
2021/03/18 10:59:42;;;;;;;6.07;3.40;;;;;;;;;;5110174;28;20194;-75
2021/03/18 11:02:09;;;;;;;5.40;3.07;;;;;;;;;;5103474;28;20719;-75
2021/03/18 11:04:50;;;;;;;5.20;3.50;;;;;;;;;;5100339;28;20278;-75
2021/03/18 11:07:18;;;;;;;5.23;3.63;;;;;;;;;;5099986;28;20232;-75
2021/03/18 11:10:02;;;;;;;4.97;3.63;;;;;;;;;;5100326;28;20451;-74
2021/03/18 11:12:29;;;;;;;7.67;3.77;;;;;;;;;;5107748;28;20240;-74
2021/03/18 11:14:56;;;;;;;7.10;4.53;;;;;;;;;;5120186;28;20723;-74
2021/03/18 11:17:27;;;;;;;4.03;3.63;;;;;;;;;;5121125;28;20258;-74
2021/03/18 11:20:08;;;;;;;6.70;3.07;;;;;;;;;;5120269;28;20672;-75
2021/03/18 11:22:35;;;;;;;5.73;3.57;;;;;;;;;;5118283;27;20225;-74
2021/03/18 11:25:03;;;;;;;4.17;3.03;;;;;;;;;;5101569;28;20256;-74
2021/03/18 11:27:31;;;;;;;4.17;3.13;;;;;;;;;;5099271;28;20770;-75
2021/03/18 11:29:59;;;;;;;4.57;2.90;;;;;;;;;;5099641;28;20201;-75
2021/03/18 11:32:27;;;;;;;4.50;3.20;;;;;;;;;;5099909;28;20243;-74
2021/03/18 11:34:55;;;;;;;4.47;2.67;;;;;;;;;;5109165;27;20302;-76
2021/03/18 11:37:25;;;;;;;4.20;3.40;;;;;;;;;;5131902;27;20214;-76
2021/03/18 11:39:53;;;;;;;3.53;2.47;;;;;;;;;;5126216;27;20200;-75
2021/03/18 11:42:20;;;;;;;3.97;2.67;;;;;;;;;;5121699;27;20303;-76
2021/03/18 11:44:47;;;;;;;5.53;2.60;;;;;;;;;;5134376;27;20270;-75
2021/03/18 11:47:15;;;;;;;3.43;2.63;;;;;;;;;;5125764;27;20256;-75
2021/03/18 11:49:42;;;;;;;3.77;2.70;;;;;;;;;;5133739;27;20192;-75
2021/03/18 11:52:10;;;;;;;2.93;2.60;;;;;;;;;;5135396;27;20200;-76
2021/03/18 11:54:39;;;;;;;3.87;2.33;;;;;;;;;;5138509;27;20734;-75
2021/03/18 11:57:06;;;;;;;5.77;2.83;;;;;;;;;;5136400;27;20196;-76
2021/03/18 11:59:33;;;;;;;3.93;2.60;;;;;;;;;;5126086;27;20723;-76
2021/03/18 12:02:01;;;;;;;4.87;2.73;;;;;;;;;;5108469;28;20659;-75
2021/03/18 12:04:28;;;;;;;3.30;2.80;;;;;;;;;;5103969;28;20217;-75
2021/03/18 12:06:56;;;;;;;4.10;2.70;;;;;;;;;;5098879;28;20205;-76
2021/03/18 12:09:24;;;;;;;2.70;2.50;;;;;;;;;;5098798;28;20221;-76
2021/03/18 12:11:52;;;;;;;3.37;2.40;;;;;;;;;;5098238;28;20650;-76
2021/03/18 12:14:19;;;;;;;3.80;2.80;;;;;;;;;;5098374;28;20237;-75
2021/03/18 12:16:46;;;;;;;2.33;2.13;;;;;;;;;;5098511;28;20259;-75
2021/03/18 12:19:14;;;;;;;3.33;2.60;;;;;;;;;;5098760;28;20231;-75
2021/03/18 12:21:41;;;;;;;1.83;1.73;;;;;;;;;;5101949;28;20254;-74
2021/03/18 12:24:11;;;;;;;2.80;2.10;;;;;;;;;;5110698;28;20667;-75
2021/03/18 12:26:39;;;;;;;2.53;2.20;;;;;;;;;;5099691;28;20209;-76
2021/03/18 12:29:07;;;;;;;3.60;2.30;;;;;;;;;;5111949;28;20324;-75
2021/03/18 12:31:35;;;;;;;3.20;2.67;;;;;;;;;;5111753;28;20213;-75
2021/03/18 12:34:02;;;;;;;3.60;2.50;;;;;;;;;;5114073;28;20280;-75
2021/03/18 12:36:29;;;;;;;4.93;2.30;;;;;;;;;;5113980;28;20280;-75
2021/03/18 12:38:57;;;;;;;2.33;2.13;;;;;;;;;;5115846;28;20227;-75
2021/03/18 12:41:30;;;;;;;5.17;2.23;;;;;;;;;;5112787;28;20222;-75
2021/03/18 12:43:57;;;;;;;2.67;2.00;;;;;;;;;;5113890;28;20197;-74
2021/03/18 12:46:25;;;;;;;2.13;1.97;;;;;;;;;;5111942;28;20220;-75
2021/03/18 12:48:53;;;;;;;2.43;2.23;;;;;;;;;;5109327;28;20270;-74
2021/03/18 12:51:20;;;;;;;3.37;2.40;;;;;;;;;;5111723;28;20230;-74
2021/03/18 12:53:47;;;;;;;4.10;2.33;;;;;;;;;;5108585;28;20568;-74
2021/03/18 12:56:14;;;;;;;4.13;2.30;;;;;;;;;;5110925;28;20231;-74
2021/03/18 12:58:41;;;;;;;3.13;2.87;;;;;;;;;;5108598;28;20225;-74
2021/03/18 13:01:09;;;;;;;2.90;2.20;;;;;;;;;;5110530;28;20299;-75
2021/03/18 13:03:37;;;;;;;2.10;2.00;;;;;;;;;;5109268;28;20206;-75
2021/03/18 13:06:05;;;;;;;2.77;2.17;;;;;;;;;;5107813;28;20222;-75
2021/03/18 13:08:33;;;;;;;3.53;2.03;;;;;;;;;;5097551;28;20225;-75
2021/03/18 13:11:01;;;;;;;4.87;2.13;;;;;;;;;;5097449;28;20574;-75
2021/03/18 13:13:28;;;;;;;2.20;2.00;;;;;;;;;;5109936;28;20227;-75
2021/03/18 13:15:55;;;;;;;3.73;2.70;;;;;;;;;;5108835;27;20412;-75
2021/03/18 13:18:23;;;;;;;2.60;1.90;;;;;;;;;;5108517;28;20616;-75
2021/03/18 13:20:52;;;;;;;3.00;2.17;;;;;;;;;;5110114;28;20207;-75
2021/03/18 13:23:19;;;;;;;2.00;1.80;;;;;;;;;;5107088;28;20210;-75
2021/03/18 13:25:47;;;;;;;2.47;2.17;;;;;;;;;;5110983;28;20252;-75
2021/03/18 13:28:14;;;;;;;3.17;2.00;;;;;;;;;;5107744;28;20591;-75
2021/03/18 13:30:42;;;;;;;2.93;2.13;;;;;;;;;;5110013;28;20197;-74
2021/03/18 13:33:09;;;;;;;2.97;2.10;;;;;;;;;;5108218;28;20256;-74
2021/03/18 13:35:38;;;;;;;5.60;2.20;;;;;;;;;;5110945;28;20273;-74
2021/03/18 13:38:06;;;;;;;3.07;2.13;;;;;;;;;;5108274;28;20197;-74
2021/03/18 13:40:35;;;;;;;2.83;2.53;;;;;;;;;;5111051;28;20223;-74
2021/03/18 13:43:02;;;;;;;4.43;2.30;;;;;;;;;;5109827;28;20205;-73
2021/03/18 13:45:29;;;;;;;4.53;1.90;;;;;;;;;;5111609;28;20217;-74
2021/03/18 13:47:57;;;;;;;6.83;2.67;;;;;;;;;;5112152;28;20251;-74
2021/03/18 13:50:28;;;;;;;2.80;2.50;;;;;;;;;;5112335;28;20572;-73
2021/03/18 13:52:56;;;;;;;2.30;2.10;;;;;;;;;;5111710;28;20285;-74
2021/03/18 13:55:24;;;;;;;2.93;2.57;;;;;;;;;;5115015;28;20266;-74
2021/03/18 13:57:52;;;;;;;2.20;2.00;;;;;;;;;;5113094;28;20203;-74
2021/03/18 14:00:20;;;;;;;3.07;2.27;;;;;;;;;;5111730;28;20239;-74
2021/03/18 14:02:47;;;;;;;3.10;1.93;;;;;;;;;;5118987;28;20200;-74
2021/03/18 14:05:14;;;;;;;3.43;2.30;;;;;;;;;;5118369;28;20239;-74
2021/03/18 14:07:44;;;;;;;2.83;2.30;;;;;;;;;;5119296;28;20220;-74
2021/03/18 14:10:11;;;;;;;3.97;2.37;;;;;;;;;;5117791;28;20773;-74
2021/03/18 14:12:40;;;;;;;3.00;2.40;;;;;;;;;;5111026;28;20276;-74
2021/03/18 14:15:08;;;;;;;4.77;2.37;;;;;;;;;;5110864;28;20311;-74
2021/03/18 14:17:35;;;;;;;2.63;2.27;;;;;;;;;;5111740;28;20231;-74
2021/03/18 14:20:04;;;;;;;3.23;2.20;;;;;;;;;;5111622;28;20202;-74
2021/03/18 14:22:32;;;;;;;4.53;2.60;;;;;;;;;;5116707;28;20208;-74
2021/03/18 14:25:00;;;;;;;3.60;2.27;;;;;;;;;;5112017;28;20680;-74
2021/03/18 14:27:27;;;;;;;2.03;1.83;;;;;;;;;;5112743;28;20439;-74
2021/03/18 14:29:55;;;;;;;3.63;2.20;;;;;;;;;;5117563;28;20221;-75
2021/03/18 14:32:22;;;;;;;3.17;1.77;;;;;;;;;;5118056;28;20197;-75
2021/03/18 14:34:50;;;;;;;3.93;2.30;;;;;;;;;;5120325;28;20217;-75
2021/03/18 14:37:18;;;;;;;2.80;1.80;;;;;;;;;;5115004;28;20569;-75
2021/03/18 14:39:46;;;;;;;2.47;1.80;;;;;;;;;;5103557;28;20200;-75
2021/03/18 14:42:13;;;;;;;2.40;2.03;;;;;;;;;;5119951;28;20601;-74
2021/03/18 14:44:40;;;;;;;2.37;2.00;;;;;;;;;;5117861;28;20794;-74
2021/03/18 14:47:08;;;;;;;2.17;1.90;;;;;;;;;;5112636;28;20201;-74
2021/03/18 14:49:35;;;;;;;2.70;1.73;;;;;;;;;;5112037;28;20309;-74
2021/03/18 14:52:03;;;;;;;3.67;2.10;;;;;;;;;;5110380;28;20229;-74
2021/03/18 14:54:30;;;;;;;2.20;2.00;;;;;;;;;;5117299;28;20252;-74
2021/03/18 14:56:58;;;;;;;3.40;2.17;;;;;;;;;;5110823;28;20285;-74
2021/03/18 14:59:46;;;;;;;2.17;2.00;;;;;;;;;;5105476;28;20202;-74
2021/03/18 15:02:14;;;;;;;2.00;1.57;;;;;;;;;;5099905;28;20214;-75
2021/03/18 15:04:42;;;;;;;2.90;2.40;;;;;;;;;;5099904;28;20247;-75
2021/03/18 15:07:09;;;;;;;2.90;1.80;;;;;;;;;;5099951;28;20245;-74